Time;durP1;ratioP1;P1;durP2;ratioP2;P2;SDS_P1;SDS_P2;PMS_P1;PMS_P2;Temp;Humidity;BMP_temperature;BMP_pressure;BME280_temperature;BME280_humidity;BME280_pressure;Samples;Min_cycle;Max_cycle;Signal;HPM_P1;HPM_P2
2021/07/28 06:19:54;;;;;;;;;;;;;;;;;;;;;
2021/07/28 06:33:25;;;;;;;21.73;19.42;;;;;;;;;;6062994;23;20014;-84
2021/07/28 06:36:17;;;;;;;24.05;20.42;;;;;;;;;;6037017;23;20022;-84
2021/07/28 06:48:38;;;;;;;23.73;17.80;;;;;;;;;;5990092;23;20071;-84
2021/07/28 07:20:07;;;;;;;14.02;12.57;;;;;;;;;;5983599;24;20032;-84
2021/07/28 07:23:19;;;;;;;14.40;12.63;;;;;;;;;;5984005;23;20471;-82
2021/07/28 07:26:16;;;;;;;16.65;13.95;;;;;;;;;;6065339;23;20106;-82
2021/07/28 07:28:58;;;;;;;19.92;14.77;;;;;;;;;;6130228;23;20387;-84
2021/07/28 07:31:28;;;;;;;16.73;14.95;;;;;;;;;;6131066;23;20017;-84
2021/07/28 07:33:58;;;;;;;19.63;15.30;;;;;;;;;;6131421;23;20080;-83
2021/07/28 07:36:39;;;;;;;17.65;14.10;;;;;;;;;;6154198;23;20444;-84
2021/07/28 07:39:19;;;;;;;;;;;;;;;;;;;;;
2021/07/28 07:42:35;;;;;;;;;;;;;;;;;;;;;
2021/07/28 07:45:17;;;;;;;18.27;14.68;;;;;;;;;;6150309;23;20014;-83
2021/07/28 07:48:10;;;;;;;18.25;15.27;;;;;;;;;;6156032;23;20017;-84
2021/07/28 07:50:38;;;;;;;18.77;14.27;;;;;;;;;;6156078;23;20041;-83
2021/07/28 07:53:11;;;;;;;19.10;14.70;;;;;;;;;;6130351;23;20114;-83
2021/07/28 07:55:38;;;;;;;18.02;15.60;;;;;;;;;;6153176;23;20368;-84
2021/07/28 07:58:14;;;;;;;18.20;14.93;;;;;;;;;;6130169;23;20458;-84
2021/07/28 08:00:42;;;;;;;17.10;13.90;;;;;;;;;;6155049;23;20021;-84
2021/07/28 08:03:39;;;;;;;18.40;14.35;;;;;;;;;;6129536;23;20047;-84
2021/07/28 08:06:44;;;;;;;;;;;;;;;;;;;;;
2021/07/28 08:09:49;;;;;;;;;;;;;;;;;;;;;
2021/07/28 08:13:12;;;;;;;13.73;12.20;;;;;;;;;;6151981;23;20115;-85
2021/07/28 08:16:42;;;;;;;;;;;;;;;;;;;;;
2021/07/28 09:08:56;;;;;;;11.95;8.93;;;;;;;;;;6156507;23;20072;-83
2021/07/28 09:14:36;;;;;;;9.90;8.25;;;;;;;;;;6123335;23;20043;-83
2021/07/28 09:20:53;;;;;;;;;;;;;;;;;;;;;
2021/07/28 09:23:21;;;;;;;12.63;9.80;;;;;;;;;;6182839;23;20077;-82
2021/07/28 09:25:55;;;;;;;13.07;10.77;;;;;;;;;;6202069;23;20021;-83
2021/07/28 09:28:28;;;;;;;13.32;10.13;;;;;;;;;;6205991;23;20196;-83
2021/07/28 09:30:58;;;;;;;11.98;9.63;;;;;;;;;;6211878;23;20052;-83
2021/07/28 09:33:32;;;;;;;12.38;9.38;;;;;;;;;;6172972;23;20040;-83
2021/07/28 09:36:19;;;;;;;10.80;9.57;;;;;;;;;;6191320;23;20044;-83
2021/07/28 09:38:54;;;;;;;11.75;9.75;;;;;;;;;;6158416;23;20016;-83
2021/07/28 09:41:27;;;;;;;11.82;9.05;;;;;;;;;;6185857;23;20024;-82
2021/07/28 09:43:56;;;;;;;13.63;9.75;;;;;;;;;;6157501;23;20100;-81
2021/07/28 09:46:29;;;;;;;17.70;9.90;;;;;;;;;;6158604;23;20024;-84
2021/07/28 09:48:59;;;;;;;13.48;9.63;;;;;;;;;;6158908;23;20100;-83
2021/07/28 09:51:34;;;;;;;16.55;10.50;;;;;;;;;;6159238;23;20028;-82
2021/07/28 09:54:24;;;;;;;;;;;;;;;;;;;;;
2021/07/28 09:56:57;;;;;;;11.40;9.98;;;;;;;;;;6158185;23;20025;-81
2021/07/28 09:59:35;;;;;;;11.30;9.55;;;;;;;;;;6158342;23;20017;-82
2021/07/28 10:02:10;;;;;;;11.40;9.73;;;;;;;;;;6157649;23;20320;-82
2021/07/28 10:04:50;;;;;;;13.57;10.52;;;;;;;;;;6158209;23;20044;-83
2021/07/28 10:07:26;;;;;;;12.35;9.60;;;;;;;;;;6184087;23;20316;-84
2021/07/28 10:10:02;;;;;;;10.43;9.32;;;;;;;;;;6184131;23;20029;-84
2021/07/28 10:12:34;;;;;;;12.40;10.25;;;;;;;;;;6151623;23;20017;-83
2021/07/28 10:15:02;;;;;;;12.95;10.82;;;;;;;;;;6152703;23;20033;-83
2021/07/28 10:17:30;;;;;;;13.35;10.55;;;;;;;;;;6152612;23;20029;-83
2021/07/28 10:20:00;;;;;;;16.38;10.95;;;;;;;;;;6154082;23;20087;-82
2021/07/28 10:22:29;;;;;;;14.15;11.10;;;;;;;;;;6152739;23;20384;-82
2021/07/28 10:24:59;;;;;;;16.33;11.48;;;;;;;;;;6153130;23;20068;-83
2021/07/28 10:27:32;;;;;;;12.73;10.13;;;;;;;;;;6165161;23;20060;-82
2021/07/28 10:30:01;;;;;;;13.35;10.32;;;;;;;;;;6197849;23;20001;-83
2021/07/28 10:32:29;;;;;;;11.57;10.02;;;;;;;;;;6180254;23;20012;-82
2021/07/28 10:35:30;;;;;;;15.40;10.13;;;;;;;;;;6159930;23;20045;-83
2021/07/28 10:38:01;;;;;;;12.48;10.57;;;;;;;;;;6039916;23;20023;-83
2021/07/28 10:41:07;;;;;;;11.88;9.93;;;;;;;;;;6138761;23;20018;-83
2021/07/28 10:44:40;;;;;;;10.20;9.20;;;;;;;;;;6178778;23;20017;-83
2021/07/28 10:50:33;;;;;;;9.02;8.23;;;;;;;;;;6136422;23;20049;-83
2021/07/28 10:53:10;;;;;;;9.07;8.18;;;;;;;;;;6154987;23;20410;-82
2021/07/28 10:55:40;;;;;;;10.18;8.68;;;;;;;;;;6153943;23;20104;-83
2021/07/28 10:58:23;;;;;;;9.57;8.43;;;;;;;;;;6153091;23;20021;-82
2021/07/28 11:00:59;;;;;;;9.32;7.57;;;;;;;;;;6153594;23;20052;-82
2021/07/28 11:03:47;;;;;;;10.93;7.73;;;;;;;;;;6152606;23;20029;-83
2021/07/28 11:06:23;;;;;;;14.13;9.43;;;;;;;;;;6155055;23;20060;-83
2021/07/28 11:08:54;;;;;;;9.75;8.48;;;;;;;;;;6154680;23;20045;-82
2021/07/28 11:11:29;;;;;;;8.43;7.63;;;;;;;;;;6153688;23;20084;-81
2021/07/28 11:14:04;;;;;;;9.00;8.02;;;;;;;;;;6153143;23;20017;-84
2021/07/28 11:16:55;;;;;;;7.95;7.13;;;;;;;;;;6155809;23;20435;-83
2021/07/28 11:19:45;;;;;;;8.75;7.85;;;;;;;;;;6153330;23;20448;-83
2021/07/28 11:22:12;;;;;;;8.82;7.95;;;;;;;;;;6153105;23;20022;-83
2021/07/28 11:24:42;;;;;;;9.38;7.88;;;;;;;;;;6154248;23;20427;-83
2021/07/28 11:27:13;;;;;;;10.85;9.25;;;;;;;;;;6154231;23;20459;-82
2021/07/28 11:29:40;;;;;;;11.00;9.55;;;;;;;;;;6152443;23;20021;-82
2021/07/28 11:32:08;;;;;;;14.77;10.20;;;;;;;;;;6151840;23;20372;-82
2021/07/28 11:34:54;;;;;;;11.60;10.40;;;;;;;;;;6151803;23;20021;-84
2021/07/28 11:37:24;;;;;;;11.70;9.80;;;;;;;;;;6164978;23;20024;-83
2021/07/28 11:39:53;;;;;;;13.30;10.20;;;;;;;;;;6152784;23;20406;-83
2021/07/28 11:42:28;;;;;;;12.00;10.80;;;;;;;;;;6152775;23;20014;-83
2021/07/28 11:44:56;;;;;;;16.70;11.68;;;;;;;;;;6152541;23;20092;-83
2021/07/28 11:47:24;;;;;;;13.75;11.32;;;;;;;;;;6153835;23;20432;-83
2021/07/28 11:50:01;;;;;;;13.32;10.73;;;;;;;;;;6153712;23;20450;-83
2021/07/28 11:52:29;;;;;;;13.65;10.90;;;;;;;;;;6151292;23;20048;-84
2021/07/28 11:54:59;;;;;;;11.30;10.00;;;;;;;;;;6151911;23;20029;-83
2021/07/28 11:57:26;;;;;;;11.82;10.63;;;;;;;;;;6151715;23;20100;-83
2021/07/28 12:00:14;;;;;;;13.20;11.73;;;;;;;;;;6151158;23;20028;-83
2021/07/28 12:02:42;;;;;;;13.55;10.73;;;;;;;;;;6150605;23;20021;-84
2021/07/28 12:05:10;;;;;;;13.10;9.90;;;;;;;;;;6151636;23;20060;-83
2021/07/28 12:07:39;;;;;;;10.82;9.55;;;;;;;;;;6152877;23;20022;-84
2021/07/28 12:10:08;;;;;;;10.40;9.38;;;;;;;;;;6153563;23;20052;-82
2021/07/28 12:12:36;;;;;;;9.77;8.82;;;;;;;;;;6152232;23;20073;-84
2021/07/28 12:15:10;;;;;;;9.35;8.40;;;;;;;;;;6170158;23;20017;-82
2021/07/28 12:17:38;;;;;;;11.63;7.75;;;;;;;;;;6176988;23;20021;-83
2021/07/28 12:20:12;;;;;;;9.90;8.68;;;;;;;;;;6173636;23;20010;-83
2021/07/28 12:22:43;;;;;;;;;;;;;;;;;;6180089;23;20009;-82
2021/07/28 12:25:19;;;;;;;8.77;7.88;;;;;;;;;;6173831;23;19927;-83
2021/07/28 12:28:02;;;;;;;9.27;8.30;;;;;;;;;;6166526;23;20104;-82
2021/07/28 12:30:32;;;;;;;17.95;7.07;;;;;;;;;;6151459;23;20026;-83
2021/07/28 12:33:10;;;;;;;7.13;6.10;;;;;;;;;;6153735;23;20104;-82
2021/07/28 12:35:40;;;;;;;8.60;6.25;;;;;;;;;;6154239;23;20017;-82
2021/07/28 12:38:28;;;;;;;8.52;7.07;;;;;;;;;;6157921;23;20028;-84
2021/07/28 12:40:58;;;;;;;7.22;6.57;;;;;;;;;;6156699;23;20037;-83
2021/07/28 12:43:27;;;;;;;7.75;6.32;;;;;;;;;;6156147;23;20104;-83
2021/07/28 12:45:56;;;;;;;7.68;6.90;;;;;;;;;;6155366;23;20025;-82
2021/07/28 12:48:24;;;;;;;7.80;6.28;;;;;;;;;;6154587;23;20328;-82
2021/07/28 12:50:51;;;;;;;6.10;5.50;;;;;;;;;;6153139;23;20021;-82
2021/07/28 12:53:19;;;;;;;5.63;5.10;;;;;;;;;;6152340;23;20017;-82
2021/07/28 12:55:46;;;;;;;5.53;5.05;;;;;;;;;;6152461;23;20371;-83
2021/07/28 12:58:15;;;;;;;7.03;5.40;;;;;;;;;;6154314;23;20025;-83
2021/07/28 13:00:43;;;;;;;6.20;4.68;;;;;;;;;;6152866;23;20013;-83
2021/07/28 13:03:15;;;;;;;5.05;4.40;;;;;;;;;;6152091;23;20503;-83
2021/07/28 13:05:44;;;;;;;4.93;4.20;;;;;;;;;;6154433;23;20465;-83
2021/07/28 13:08:12;;;;;;;4.95;4.38;;;;;;;;;;6152272;23;20021;-84
2021/07/28 13:10:41;;;;;;;5.22;3.80;;;;;;;;;;6152546;23;20024;-84
2021/07/28 13:13:13;;;;;;;5.38;4.55;;;;;;;;;;6152790;23;20076;-84
2021/07/28 13:15:43;;;;;;;4.70;4.30;;;;;;;;;;6153301;23;20408;-84
2021/07/28 13:18:14;;;;;;;6.70;4.55;;;;;;;;;;6153572;23;20056;-83
2021/07/28 13:20:44;;;;;;;6.30;4.30;;;;;;;;;;6153991;23;20043;-84
2021/07/28 13:23:16;;;;;;;5.18;3.47;;;;;;;;;;6155234;23;20068;-84
2021/07/28 13:25:45;;;;;;;4.68;4.00;;;;;;;;;;6155197;23;20029;-83
2021/07/28 13:28:22;;;;;;;4.28;3.83;;;;;;;;;;6153407;23;20053;-84
2021/07/28 13:30:51;;;;;;;4.65;3.92;;;;;;;;;;6154743;23;20018;-83
2021/07/28 13:33:18;;;;;;;4.20;3.80;;;;;;;;;;6153769;23;20377;-83
2021/07/28 13:35:47;;;;;;;4.18;3.78;;;;;;;;;;6153225;23;20129;-83
2021/07/28 13:38:14;;;;;;;4.03;3.65;;;;;;;;;;6154413;23;20014;-83
2021/07/28 13:40:47;;;;;;;4.55;3.70;;;;;;;;;;6153513;23;20018;-84
2021/07/28 13:43:14;;;;;;;4.25;3.50;;;;;;;;;;6152070;23;20021;-84
2021/07/28 13:45:44;;;;;;;3.95;3.50;;;;;;;;;;6152471;23;20112;-83
2021/07/28 13:48:12;;;;;;;6.30;3.63;;;;;;;;;;6155262;23;20041;-84
2021/07/28 13:50:41;;;;;;;3.53;3.22;;;;;;;;;;6154175;23;20025;-83
2021/07/28 13:53:09;;;;;;;4.55;3.47;;;;;;;;;;6153165;23;20487;-83
2021/07/28 13:55:37;;;;;;;6.50;3.90;;;;;;;;;;6154960;23;20022;-83
2021/07/28 13:58:04;;;;;;;8.32;3.88;;;;;;;;;;6153772;23;20031;-82
2021/07/28 14:00:33;;;;;;;5.97;4.20;;;;;;;;;;6153033;23;20309;-82
2021/07/28 14:03:00;;;;;;;8.45;3.90;;;;;;;;;;6154407;23;20076;-82
2021/07/28 14:05:29;;;;;;;5.43;3.85;;;;;;;;;;6154173;23;20032;-84
2021/07/28 14:07:58;;;;;;;6.40;3.90;;;;;;;;;;6154864;23;20018;-84
2021/07/28 14:10:25;;;;;;;6.50;3.80;;;;;;;;;;6152951;23;20017;-82
2021/07/28 14:13:04;;;;;;;7.95;3.35;;;;;;;;;;6177122;23;20497;-82
2021/07/28 14:15:48;;;;;;;6.70;4.35;;;;;;;;;;6184437;23;20024;-84
2021/07/28 14:21:24;;;;;;;4.63;3.58;;;;;;;;;;6177282;23;20028;-83
2021/07/28 14:23:53;;;;;;;4.95;3.50;;;;;;;;;;6157179;23;20013;-83
2021/07/28 14:26:24;;;;;;;6.20;3.88;;;;;;;;;;6157965;23;20097;-83
2021/07/28 14:28:57;;;;;;;3.00;2.80;;;;;;;;;;6183595;23;20347;-84
2021/07/28 14:31:24;;;;;;;3.60;3.17;;;;;;;;;;6158121;23;20268;-84
2021/07/28 14:33:52;;;;;;;3.28;2.97;;;;;;;;;;6158173;23;20344;-83
2021/07/28 14:36:21;;;;;;;3.70;3.08;;;;;;;;;;6158412;23;20021;-84
2021/07/28 14:38:59;;;;;;;3.35;3.13;;;;;;;;;;6156976;23;20039;-84
2021/07/28 14:41:32;;;;;;;3.38;3.17;;;;;;;;;;6157577;23;20082;-84
2021/07/28 14:44:02;;;;;;;4.03;3.17;;;;;;;;;;6156983;23;20017;-82
2021/07/28 14:46:38;;;;;;;3.92;3.25;;;;;;;;;;6175687;23;20020;-83
2021/07/28 14:49:11;;;;;;;3.42;3.20;;;;;;;;;;6210574;23;20032;-84
2021/07/28 14:51:40;;;;;;;4.47;3.20;;;;;;;;;;6163388;23;20061;-84
2021/07/28 14:54:13;;;;;;;4.38;3.45;;;;;;;;;;6159355;23;20443;-84
2021/07/28 14:56:49;;;;;;;4.60;3.22;;;;;;;;;;6159753;23;20066;-84
2021/07/28 15:19:31;;;;;;;;;;;;;;;;;;;;;
2021/07/28 15:22:25;;;;;;;6.25;4.70;;;;;;;;;;6154940;23;20104;-82
2021/07/28 15:25:16;;;;;;;5.03;4.57;;;;;;;;;;6092310;23;20042;-83
2021/07/28 15:27:47;;;;;;;6.40;4.63;;;;;;;;;;6097330;23;20028;-83
2021/07/28 15:30:34;;;;;;;4.70;3.97;;;;;;;;;;6123596;23;20017;-83
2021/07/28 15:33:25;;;;;;;4.82;3.60;;;;;;;;;;6096752;23;20016;-83
2021/07/28 15:36:14;;;;;;;3.53;2.88;;;;;;;;;;6123261;23;20022;-83
2021/07/28 15:38:57;;;;;;;3.72;2.50;;;;;;;;;;6123364;23;20020;-83
2021/07/28 15:41:26;;;;;;;4.88;2.47;;;;;;;;;;6147301;23;20022;-82
2021/07/28 15:43:54;;;;;;;5.18;2.65;;;;;;;;;;6096659;23;20022;-83
2021/07/28 15:46:21;;;;;;;2.63;2.22;;;;;;;;;;6097271;23;20325;-82
2021/07/28 15:48:49;;;;;;;2.60;2.40;;;;;;;;;;6097081;23;20080;-83
2021/07/28 15:51:23;;;;;;;2.20;2.03;;;;;;;;;;6097300;23;20096;-82
2021/07/28 15:53:53;;;;;;;2.63;2.38;;;;;;;;;;6122340;23;20029;-82
2021/07/28 15:56:22;;;;;;;3.15;2.38;;;;;;;;;;6123210;23;20041;-82
2021/07/28 15:58:51;;;;;;;2.33;1.92;;;;;;;;;;6097350;23;20046;-83
2021/07/28 16:01:21;;;;;;;4.00;2.50;;;;;;;;;;6096892;23;20473;-83
2021/07/28 16:03:48;;;;;;;2.80;2.50;;;;;;;;;;6096516;23;20089;-83
2021/07/28 16:06:16;;;;;;;2.60;2.40;;;;;;;;;;6122876;23;20026;-82
2021/07/28 16:08:45;;;;;;;3.90;2.20;;;;;;;;;;6096908;23;20515;-82
2021/07/28 16:11:17;;;;;;;3.42;2.25;;;;;;;;;;6097090;23;20014;-82
2021/07/28 16:13:48;;;;;;;5.32;2.08;;;;;;;;;;6096122;23;20033;-82
2021/07/28 16:16:16;;;;;;;1.88;1.65;;;;;;;;;;6096730;23;20489;-82
2021/07/28 16:18:53;;;;;;;2.03;1.90;;;;;;;;;;6122683;23;20018;-82
2021/07/28 16:21:21;;;;;;;3.88;2.15;;;;;;;;;;6123185;23;20030;-82
2021/07/28 16:23:51;;;;;;;2.20;2.00;;;;;;;;;;6097278;23;20030;-82
2021/07/28 16:26:21;;;;;;;2.47;2.10;;;;;;;;;;6123476;23;20033;-82
2021/07/28 16:28:49;;;;;;;2.38;2.13;;;;;;;;;;6121563;23;20109;-82
2021/07/28 16:31:20;;;;;;;3.20;2.13;;;;;;;;;;6123510;23;20440;-83
2021/07/28 16:33:47;;;;;;;2.58;1.92;;;;;;;;;;6146622;23;20351;-81
2021/07/28 16:36:23;;;;;;;4.32;2.72;;;;;;;;;;6097792;23;20069;-83
2021/07/28 16:38:52;;;;;;;2.45;1.70;;;;;;;;;;6123985;23;20093;-83
2021/07/28 16:41:21;;;;;;;4.18;2.10;;;;;;;;;;6124545;23;20018;-83
2021/07/28 16:43:52;;;;;;;3.78;2.20;;;;;;;;;;6125375;23;20024;-84
2021/07/28 16:46:25;;;;;;;3.85;2.10;;;;;;;;;;6097567;23;20025;-84
2021/07/28 16:48:54;;;;;;;2.30;1.95;;;;;;;;;;6097616;23;20029;-83
2021/07/28 16:51:23;;;;;;;2.63;2.05;;;;;;;;;;6123429;23;20022;-83
2021/07/28 16:53:52;;;;;;;7.18;1.90;;;;;;;;;;6123106;23;20383;-83
2021/07/28 16:56:21;;;;;;;2.00;1.90;;;;;;;;;;6123617;23;20084;-84
2021/07/28 16:58:49;;;;;;;2.15;1.95;;;;;;;;;;6123278;23;20085;-84
2021/07/28 17:01:16;;;;;;;3.97;2.40;;;;;;;;;;6123515;23;20459;-84
2021/07/28 17:03:44;;;;;;;2.15;1.95;;;;;;;;;;6122667;23;20385;-83
2021/07/28 17:06:12;;;;;;;3.03;2.10;;;;;;;;;;6097081;23;20045;-83
2021/07/28 17:08:41;;;;;;;3.03;2.50;;;;;;;;;;6123718;23;20029;-84
2021/07/28 17:11:13;;;;;;;4.15;2.47;;;;;;;;;;6122731;23;20104;-84
2021/07/28 17:13:40;;;;;;;2.72;2.25;;;;;;;;;;6097795;23;20098;-85
2021/07/28 17:16:10;;;;;;;2.30;2.10;;;;;;;;;;6097006;23;20021;-84
2021/07/28 17:18:38;;;;;;;3.70;2.08;;;;;;;;;;6068959;23;20019;-84
2021/07/28 17:21:06;;;;;;;5.28;2.00;;;;;;;;;;6094554;23;20333;-84
2021/07/28 17:23:33;;;;;;;5.43;2.00;;;;;;;;;;6093400;23;20018;-85
2021/07/28 17:26:02;;;;;;;3.65;2.10;;;;;;;;;;6093952;23;20026;-85
2021/07/28 17:28:31;;;;;;;2.42;2.22;;;;;;;;;;6095915;23;20014;-85
2021/07/28 17:31:00;;;;;;;4.82;1.98;;;;;;;;;;6093764;23;20027;-85
2021/07/28 17:33:28;;;;;;;2.25;1.85;;;;;;;;;;6094662;23;20093;-84
2021/07/28 17:35:59;;;;;;;3.72;1.80;;;;;;;;;;6095261;23;20018;-84
2021/07/28 17:38:28;;;;;;;3.60;2.10;;;;;;;;;;6095549;23;20089;-85
2021/07/28 17:40:56;;;;;;;3.03;1.83;;;;;;;;;;6096101;23;20483;-84
2021/07/28 17:43:26;;;;;;;3.25;2.03;;;;;;;;;;6094345;23;20023;-85
2021/07/28 17:45:55;;;;;;;2.65;1.77;;;;;;;;;;6093993;23;20110;-82
2021/07/28 17:48:44;;;;;;;3.40;2.00;;;;;;;;;;6129191;23;20021;-83
2021/07/28 17:51:14;;;;;;;6.80;2.50;;;;;;;;;;6116586;23;20024;-83
2021/07/28 17:53:42;;;;;;;7.43;2.47;;;;;;;;;;6123556;23;20022;-83
2021/07/28 17:56:10;;;;;;;4.05;2.15;;;;;;;;;;6126707;23;20096;-83
2021/07/28 17:58:37;;;;;;;3.05;2.30;;;;;;;;;;6099983;23;20022;-83
2021/07/28 18:01:15;;;;;;;6.35;2.22;;;;;;;;;;6119253;23;20006;-83
2021/07/28 18:03:48;;;;;;;4.35;2.00;;;;;;;;;;6118952;23;20021;-84
2021/07/28 18:06:38;;;;;;;8.02;2.40;;;;;;;;;;6120124;23;20010;-83
2021/07/28 18:09:08;;;;;;;3.83;2.35;;;;;;;;;;6123780;23;20026;-84
2021/07/28 18:11:40;;;;;;;4.47;2.05;;;;;;;;;;6114780;23;20072;-84
2021/07/28 18:14:10;;;;;;;2.80;2.30;;;;;;;;;;6131712;23;20043;-84
2021/07/28 18:16:39;;;;;;;3.22;2.30;;;;;;;;;;6125049;23;20025;-84
2021/07/28 18:19:09;;;;;;;3.92;2.35;;;;;;;;;;6099330;23;20022;-84
2021/07/28 18:21:43;;;;;;;4.05;2.42;;;;;;;;;;6124463;23;20018;-82
2021/07/28 18:24:11;;;;;;;3.90;2.10;;;;;;;;;;6124466;23;20029;-84
2021/07/28 18:26:42;;;;;;;3.75;2.40;;;;;;;;;;6099425;23;20112;-84
2021/07/28 18:29:10;;;;;;;2.80;2.50;;;;;;;;;;6124261;23;20069;-83
2021/07/28 18:31:39;;;;;;;6.78;2.53;;;;;;;;;;6098587;23;20468;-83
2021/07/28 18:34:07;;;;;;;8.25;2.42;;;;;;;;;;6098863;23;20314;-84
2021/07/28 18:36:35;;;;;;;4.85;2.70;;;;;;;;;;6098482;23;20352;-83
2021/07/28 18:39:05;;;;;;;5.85;2.20;;;;;;;;;;6098132;23;20018;-83
2021/07/28 18:41:33;;;;;;;6.18;2.63;;;;;;;;;;6099978;23;20068;-84
2021/07/28 18:44:00;;;;;;;2.90;2.45;;;;;;;;;;6125701;23;20022;-83
2021/07/28 18:46:31;;;;;;;3.85;2.55;;;;;;;;;;6093294;23;20046;-83
2021/07/28 18:49:00;;;;;;;2.47;2.28;;;;;;;;;;6093696;23;20101;-84
2021/07/28 18:51:31;;;;;;;5.25;2.35;;;;;;;;;;6093436;23;20413;-83
2021/07/28 18:53:59;;;;;;;4.78;2.58;;;;;;;;;;6098507;23;20015;-85
2021/07/28 18:56:28;;;;;;;4.85;2.70;;;;;;;;;;6071778;23;20026;-84
2021/07/28 18:58:55;;;;;;;5.70;2.40;;;;;;;;;;6099066;23;20026;-83
2021/07/28 19:01:23;;;;;;;4.53;2.40;;;;;;;;;;6097658;23;20026;-84
2021/07/28 19:03:54;;;;;;;4.03;2.28;;;;;;;;;;6097093;23;20449;-84
2021/07/28 19:06:24;;;;;;;4.00;2.60;;;;;;;;;;6097300;23;20073;-83
2021/07/28 19:08:54;;;;;;;3.85;2.40;;;;;;;;;;6119818;23;20006;-83
2021/07/28 19:11:22;;;;;;;3.78;2.78;;;;;;;;;;6097990;23;20042;-84
2021/07/28 19:13:52;;;;;;;2.60;2.40;;;;;;;;;;6099253;23;20018;-84
2021/07/28 19:16:22;;;;;;;3.88;2.50;;;;;;;;;;6100118;23;20029;-84
2021/07/28 19:18:49;;;;;;;7.15;2.78;;;;;;;;;;6110927;23;20014;-83
2021/07/28 19:21:20;;;;;;;5.65;3.03;;;;;;;;;;6116157;23;20030;-83
2021/07/28 19:23:49;;;;;;;5.63;3.13;;;;;;;;;;6131595;23;20081;-84
2021/07/28 19:26:17;;;;;;;4.85;2.92;;;;;;;;;;6138706;23;20021;-84
2021/07/28 19:32:10;;;;;;;5.78;3.58;;;;;;;;;;6127516;23;20514;-85
2021/07/28 19:34:41;;;;;;;4.15;3.35;;;;;;;;;;6127290;23;20048;-84
2021/07/28 19:45:37;;;;;;;7.22;3.08;;;;;;;;;;6122914;23;20108;-82
2021/07/28 19:48:13;;;;;;;6.63;3.42;;;;;;;;;;6128989;23;20366;-83
